createdAt,value
2017-09-18T00:01:34.729Z,1.93
2017-09-18T00:04:09.357Z,2.00
2017-09-18T00:06:43.922Z,1.07
2017-09-18T00:09:18.655Z,1.10
2017-09-18T00:11:53.393Z,1.17
2017-09-18T00:14:27.950Z,1.20
2017-09-18T00:17:02.530Z,1.60
2017-09-18T00:19:37.056Z,0.93
2017-09-18T00:22:11.507Z,1.00
2017-09-18T00:24:46.122Z,1.30
2017-09-18T00:27:20.866Z,1.33
2017-09-18T00:29:55.577Z,1.20
2017-09-18T00:32:30.118Z,1.40
2017-09-18T00:35:04.812Z,1.30
2017-09-18T00:37:39.355Z,1.50
2017-09-18T00:40:14.085Z,1.17
2017-09-18T00:42:48.688Z,1.40
2017-09-18T00:45:23.281Z,1.40
2017-09-18T00:47:57.802Z,1.37
2017-09-18T00:50:31.629Z,1.30
2017-09-18T00:53:05.365Z,1.43
2017-09-18T00:55:39.814Z,1.30
2017-09-18T00:58:14.173Z,1.33
2017-09-18T01:00:48.768Z,1.37
2017-09-18T01:03:23.374Z,1.40
2017-09-18T01:05:57.913Z,1.00
2017-09-18T01:08:32.505Z,1.10
2017-09-18T01:11:07.173Z,1.00
2017-09-18T01:13:41.785Z,1.00
2017-09-18T01:16:16.368Z,1.13
2017-09-18T01:18:50.959Z,1.20
2017-09-18T01:21:25.294Z,1.20
2017-09-18T01:23:59.946Z,1.27
2017-09-18T01:26:34.537Z,1.60
2017-09-18T01:29:09.195Z,1.13
2017-09-18T01:31:43.514Z,1.43
2017-09-18T01:34:18.097Z,2.07
2017-09-18T01:36:52.782Z,1.30
2017-09-18T01:39:27.422Z,1.13
2017-09-18T01:42:01.946Z,1.07
2017-09-18T01:44:36.581Z,1.27
2017-09-18T01:47:11.249Z,1.53
2017-09-18T01:49:45.861Z,1.57
2017-09-18T01:52:20.361Z,1.70
2017-09-18T01:54:55.040Z,1.30
2017-09-18T01:57:29.522Z,1.50
2017-09-18T02:00:03.397Z,1.60
2017-09-18T02:02:37.950Z,1.47
2017-09-18T02:05:12.570Z,1.47
2017-09-18T02:07:46.959Z,1.70
2017-09-18T02:10:21.489Z,1.90
2017-09-18T02:12:56.094Z,1.43
2017-09-18T02:15:30.638Z,1.63
2017-09-18T02:18:05.205Z,1.17
2017-09-18T02:20:39.817Z,1.90
2017-09-18T02:23:14.374Z,1.50
2017-09-18T02:25:48.946Z,1.90
2017-09-18T02:28:23.514Z,2.00
2017-09-18T02:30:58.789Z,1.57
2017-09-18T02:33:33.430Z,2.50
2017-09-18T02:36:08.776Z,2.23
2017-09-18T02:38:43.056Z,2.23
2017-09-18T02:41:17.564Z,2.60
2017-09-18T02:43:51.918Z,1.77
2017-09-18T02:46:26.490Z,1.90
2017-09-18T02:49:01.268Z,2.13
2017-09-18T02:51:35.692Z,1.83
2017-09-18T02:54:11.053Z,1.70
2017-09-18T02:56:45.503Z,2.00
2017-09-18T02:59:20.045Z,1.67
2017-09-18T03:01:54.606Z,2.00
2017-09-18T03:04:29.173Z,2.37
2017-09-18T03:07:03.778Z,1.73
2017-09-18T03:09:38.130Z,2.13
2017-09-18T03:12:12.698Z,2.20
2017-09-18T03:14:47.266Z,1.93
2017-09-18T03:17:21.943Z,2.50
2017-09-18T03:19:56.466Z,2.23
2017-09-18T03:22:30.982Z,2.30
2017-09-18T03:25:05.601Z,1.80
2017-09-18T03:27:40.164Z,1.77
2017-09-18T03:30:14.739Z,2.50
2017-09-18T03:32:49.425Z,1.97
2017-09-18T03:35:23.953Z,2.30
2017-09-18T03:37:58.574Z,2.00
2017-09-18T03:40:33.122Z,2.00
2017-09-18T03:43:07.532Z,1.93
2017-09-18T03:45:42.265Z,2.37
2017-09-18T03:48:16.558Z,1.83
2017-09-18T03:50:51.015Z,2.10
2017-09-18T03:53:25.613Z,1.90
2017-09-18T03:56:00.033Z,2.07
2017-09-18T03:58:35.549Z,1.80
2017-09-18T04:01:09.870Z,2.00
2017-09-18T04:03:44.288Z,1.77
2017-09-18T04:06:18.973Z,1.90
2017-09-18T04:08:53.438Z,1.83
2017-09-18T04:11:28.154Z,2.10
2017-09-18T04:14:02.745Z,1.83
2017-09-18T04:16:37.411Z,1.23
2017-09-18T04:19:11.953Z,1.90
2017-09-18T04:21:46.501Z,1.80
2017-09-18T04:24:21.811Z,1.77
2017-09-18T04:26:56.322Z,2.27
2017-09-18T04:29:30.885Z,1.50
2017-09-18T04:32:05.479Z,1.87
2017-09-18T04:34:40.041Z,1.60
2017-09-18T04:37:14.610Z,2.03
2017-09-18T04:39:49.001Z,1.87
2017-09-18T04:42:23.545Z,1.90
2017-09-18T04:44:58.121Z,2.67
2017-09-18T04:47:32.669Z,1.83
2017-09-18T04:50:07.231Z,1.70
2017-09-18T04:52:41.853Z,1.50
2017-09-18T04:55:16.450Z,2.43
2017-09-18T04:57:50.870Z,1.70
2017-09-18T05:00:25.409Z,1.80
2017-09-18T05:03:00.175Z,2.27
2017-09-18T05:05:34.602Z,2.30
2017-09-18T05:08:09.150Z,1.93
2017-09-18T05:10:43.653Z,1.70
2017-09-18T05:13:18.193Z,2.30
2017-09-18T05:15:53.712Z,1.77
2017-09-18T05:18:28.182Z,2.53
2017-09-18T05:21:02.950Z,1.90
2017-09-18T05:23:37.317Z,1.73
2017-09-18T05:26:11.777Z,2.13
2017-09-18T05:28:46.897Z,2.23
2017-09-18T05:31:21.385Z,1.80
2017-09-18T05:33:56.142Z,2.50
2017-09-18T05:36:30.642Z,4.77
2017-09-18T05:39:04.525Z,3.00
2017-09-18T05:41:48.850Z,3.23
2017-09-18T05:44:23.560Z,3.43
2017-09-18T05:46:58.137Z,2.83
2017-09-18T05:49:32.657Z,3.00
2017-09-18T05:52:07.192Z,2.60
2017-09-18T05:54:42.009Z,2.80
2017-09-18T05:57:16.705Z,3.77
2017-09-18T05:59:52.101Z,3.80
2017-09-18T06:02:26.618Z,3.73
2017-09-18T06:05:01.191Z,4.57
2017-09-18T06:07:36.454Z,4.10
2017-09-18T06:10:15.017Z,3.30
2017-09-18T06:12:49.649Z,3.17
2017-09-18T06:15:24.261Z,3.03
2017-09-18T06:17:58.675Z,2.77
2017-09-18T06:20:33.285Z,3.33
2017-09-18T06:23:07.819Z,3.10
2017-09-18T06:25:42.385Z,3.17
2017-09-18T06:28:16.886Z,3.33
2017-09-18T06:30:51.480Z,2.43
2017-09-18T06:33:25.949Z,3.30
2017-09-18T06:36:00.652Z,2.83
2017-09-18T06:38:35.236Z,2.60
2017-09-18T06:41:09.741Z,2.73
2017-09-18T06:43:44.025Z,2.20
2017-09-18T06:46:18.559Z,3.40
2017-09-18T06:48:53.898Z,2.60
2017-09-18T06:51:28.548Z,2.80
2017-09-18T06:54:03.872Z,3.73
2017-09-18T06:56:38.357Z,3.57
2017-09-18T06:59:12.849Z,4.53
2017-09-18T07:01:47.402Z,4.60
2017-09-18T07:04:21.866Z,3.63
2017-09-18T07:06:56.401Z,3.30
2017-09-18T07:09:31.619Z,3.10
2017-09-18T07:12:06.093Z,2.70
2017-09-18T07:14:40.658Z,2.67
2017-09-18T07:17:15.209Z,9.27
2017-09-18T07:19:49.886Z,4.73
2017-09-18T07:22:24.598Z,6.20
2017-09-18T07:24:59.110Z,6.20
2017-09-18T07:27:33.626Z,4.10
2017-09-18T07:30:15.809Z,3.50
2017-09-18T07:32:50.492Z,3.60
2017-09-18T07:35:25.121Z,2.83
2017-09-18T07:37:59.562Z,2.60
2017-09-18T07:40:34.370Z,2.73
2017-09-18T07:43:09.203Z,2.87
2017-09-18T07:45:43.720Z,2.03
2017-09-18T07:48:18.062Z,2.23
2017-09-18T07:50:52.593Z,2.67
2017-09-18T07:53:27.238Z,2.60
2017-09-18T07:56:01.821Z,1.80
2017-09-18T07:58:36.420Z,2.70
2017-09-18T08:01:11.230Z,1.83
2017-09-18T08:03:45.913Z,2.70
2017-09-18T08:06:20.461Z,3.20
2017-09-18T08:08:54.962Z,2.40
2017-09-18T08:11:29.526Z,3.00
2017-09-18T08:14:03.957Z,3.00
2017-09-18T08:16:38.605Z,2.33
2017-09-18T08:19:13.054Z,3.27
2017-09-18T08:21:48.234Z,2.70
2017-09-18T08:24:22.729Z,2.37
2017-09-18T08:26:57.263Z,4.27
2017-09-18T08:29:31.929Z,5.97
2017-09-18T08:32:06.522Z,2.33
2017-09-18T08:34:41.250Z,3.10
2017-09-18T08:37:15.557Z,6.30
2017-09-18T08:39:50.182Z,6.27
2017-09-18T08:42:24.737Z,3.90
2017-09-18T08:44:59.054Z,2.13
2017-09-18T08:47:33.590Z,1.10
2017-09-18T08:50:14.666Z,1.50
2017-09-18T08:52:49.253Z,1.13
2017-09-18T08:55:23.709Z,1.40
2017-09-18T08:57:58.043Z,1.40
2017-09-18T09:00:32.438Z,1.20
2017-09-18T09:03:06.801Z,1.13
2017-09-18T09:05:41.266Z,1.33
2017-09-18T09:08:15.529Z,1.67
2017-09-18T09:10:49.566Z,1.20
2017-09-18T09:13:23.653Z,1.67
2017-09-18T09:15:58.945Z,1.60
2017-09-18T09:18:33.638Z,1.10
2017-09-18T09:21:08.213Z,1.50
2017-09-18T09:23:42.623Z,1.07
2017-09-18T09:26:17.072Z,1.20
2017-09-18T09:28:51.568Z,1.10
2017-09-18T09:31:26.105Z,1.00
2017-09-18T09:34:00.363Z,1.13
2017-09-18T09:36:35.749Z,1.10
2017-09-18T09:39:10.378Z,1.23
2017-09-18T09:41:44.690Z,1.33
2017-09-18T09:44:19.323Z,1.50
2017-09-18T09:46:53.697Z,1.37
2017-09-18T09:49:28.341Z,1.40
2017-09-18T09:52:03.841Z,1.20
2017-09-18T09:54:39.262Z,1.30
2017-09-18T09:57:13.897Z,1.50
2017-09-18T09:59:48.201Z,1.30
2017-09-18T10:02:22.673Z,1.27
2017-09-18T10:04:57.378Z,1.30
2017-09-18T10:07:31.926Z,1.47
2017-09-18T10:10:14.557Z,1.17
2017-09-18T10:12:49.106Z,1.40
2017-09-18T10:15:23.906Z,1.33
2017-09-18T10:17:58.554Z,1.37
2017-09-18T10:20:33.158Z,1.13
2017-09-18T10:23:07.785Z,1.30
2017-09-18T10:25:42.373Z,1.90
2017-09-18T10:28:16.707Z,1.20
2017-09-18T10:30:51.026Z,1.50
2017-09-18T10:33:25.285Z,1.30
2017-09-18T10:35:59.679Z,1.40
2017-09-18T10:38:34.254Z,1.17
2017-09-18T10:41:09.382Z,1.17
2017-09-18T10:43:43.973Z,1.30
2017-09-18T10:46:18.669Z,1.53
2017-09-18T10:48:54.061Z,1.30
2017-09-18T10:51:28.574Z,1.70
2017-09-18T10:54:02.998Z,1.20
2017-09-18T10:56:37.526Z,1.10
2017-09-18T10:59:12.219Z,1.10
2017-09-18T11:01:46.746Z,1.00
2017-09-18T11:04:21.198Z,0.90
2017-09-18T11:06:55.791Z,1.57
2017-09-18T11:09:30.434Z,1.00
2017-09-18T11:12:04.918Z,1.17
2017-09-18T11:14:39.506Z,1.20
2017-09-18T11:17:14.042Z,0.90
2017-09-18T11:19:48.622Z,1.10
2017-09-18T11:22:23.171Z,1.33
2017-09-18T11:24:57.831Z,1.23
2017-09-18T11:27:32.389Z,1.37
2017-09-18T11:30:21.619Z,1.27
2017-09-18T11:32:56.497Z,0.93
2017-09-18T11:35:31.146Z,1.10
2017-09-18T11:38:05.769Z,1.30
2017-09-18T11:40:40.342Z,1.33
2017-09-18T11:43:14.980Z,1.60
2017-09-18T11:45:49.562Z,2.70
2017-09-18T11:48:24.129Z,1.30
2017-09-18T11:50:58.643Z,0.90
2017-09-18T11:53:33.105Z,1.30
2017-09-18T11:56:07.709Z,1.23
2017-09-18T11:58:42.418Z,1.60
2017-09-18T12:01:16.937Z,1.50
2017-09-18T12:03:51.554Z,1.10
2017-09-18T12:06:26.069Z,1.23
2017-09-18T12:09:00.670Z,1.97
2017-09-18T12:11:35.190Z,1.47
2017-09-18T12:14:09.825Z,1.43
2017-09-18T12:16:44.398Z,1.73
2017-09-18T12:19:19.583Z,1.60
2017-09-18T12:21:54.297Z,1.50
2017-09-18T12:24:28.956Z,1.40
2017-09-18T12:27:03.526Z,1.73
2017-09-18T12:29:38.106Z,1.70
2017-09-18T12:32:13.417Z,1.70
2017-09-18T12:34:47.867Z,1.40
2017-09-18T12:37:22.442Z,1.37
2017-09-18T12:39:56.973Z,1.20
2017-09-18T12:42:31.550Z,1.47
2017-09-18T12:45:14.417Z,1.20
2017-09-18T12:47:49.155Z,2.03
2017-09-18T12:50:23.646Z,2.30
2017-09-18T12:52:58.450Z,1.10
2017-09-18T12:55:33.240Z,1.30
2017-09-18T12:58:07.907Z,1.43
2017-09-18T13:00:42.434Z,1.40
2017-09-18T13:03:16.734Z,1.40
2017-09-18T13:05:51.205Z,1.20
2017-09-18T13:08:26.594Z,1.13
2017-09-18T13:11:01.286Z,1.27
2017-09-18T13:13:35.953Z,1.13
2017-09-18T13:16:10.577Z,1.37
2017-09-18T13:18:45.021Z,1.40
2017-09-18T13:21:19.514Z,1.53
2017-09-18T13:23:54.075Z,1.43
2017-09-18T13:26:28.623Z,1.57
2017-09-18T13:29:03.234Z,1.10
2017-09-18T13:31:37.657Z,2.00
2017-09-18T13:34:12.341Z,1.43
2017-09-18T13:36:46.902Z,1.47
2017-09-18T13:39:21.467Z,1.40
2017-09-18T13:41:56.199Z,1.10
2017-09-18T13:44:30.662Z,1.40
2017-09-18T13:47:05.197Z,1.20
2017-09-18T13:49:39.670Z,1.17
2017-09-18T13:52:14.217Z,1.50
2017-09-18T13:54:48.789Z,1.70
2017-09-18T13:57:24.070Z,1.73
2017-09-18T13:59:58.502Z,1.10
2017-09-18T14:02:33.157Z,1.30
2017-09-18T14:05:14.894Z,1.30
2017-09-18T14:07:49.354Z,1.30
2017-09-18T14:10:23.945Z,2.00
2017-09-18T14:12:58.470Z,1.50
2017-09-18T14:15:32.949Z,1.30
2017-09-18T14:18:07.633Z,1.63
2017-09-18T14:20:42.235Z,1.40
2017-09-18T14:23:17.006Z,1.60
2017-09-18T14:25:51.604Z,1.10
2017-09-18T14:28:26.125Z,1.20
2017-09-18T14:31:00.669Z,1.23
2017-09-18T14:33:35.042Z,1.80
2017-09-18T14:36:09.418Z,1.30
2017-09-18T14:38:43.658Z,1.40
2017-09-18T14:41:18.116Z,1.40
2017-09-18T14:43:52.377Z,2.97
2017-09-18T14:46:26.969Z,2.10
2017-09-18T14:49:01.481Z,1.60
2017-09-18T14:51:36.750Z,1.60
2017-09-18T14:54:11.261Z,1.77
2017-09-18T14:56:45.837Z,2.70
2017-09-18T14:59:20.147Z,1.83
2017-09-18T15:01:54.641Z,1.80
2017-09-18T15:04:29.143Z,1.53
2017-09-18T15:07:03.612Z,1.50
2017-09-18T15:09:38.105Z,1.60
2017-09-18T15:12:12.725Z,1.37
2017-09-18T15:14:47.475Z,1.43
2017-09-18T15:17:22.000Z,1.50
2017-09-18T15:19:56.570Z,1.23
2017-09-18T15:22:31.126Z,1.40
2017-09-18T15:25:15.266Z,1.30
2017-09-18T15:27:49.864Z,1.83
2017-09-18T15:30:24.477Z,2.30
2017-09-18T15:32:58.727Z,1.17
2017-09-18T15:35:33.089Z,1.63
2017-09-18T15:38:07.671Z,1.53
2017-09-18T15:40:42.270Z,1.87
2017-09-18T15:43:16.737Z,2.63
2017-09-18T15:45:51.447Z,2.17
2017-09-18T15:48:26.106Z,2.03
2017-09-18T15:51:00.693Z,2.73
2017-09-18T15:53:36.751Z,2.57
2017-09-18T15:56:12.836Z,3.27
2017-09-18T15:58:47.253Z,2.60
2017-09-18T16:01:21.821Z,3.03
2017-09-18T16:03:56.498Z,2.33
2017-09-18T16:06:31.057Z,1.77
2017-09-18T16:09:05.384Z,2.00
2017-09-18T16:11:39.818Z,2.50
2017-09-18T16:14:14.242Z,2.67
2017-09-18T16:16:48.802Z,2.10
2017-09-18T16:19:23.224Z,1.97
2017-09-18T16:21:57.800Z,2.47
2017-09-18T16:24:32.242Z,1.93
2017-09-18T16:27:06.566Z,1.70
2017-09-18T16:29:40.862Z,1.70
2017-09-18T16:32:15.441Z,1.70
2017-09-18T16:34:49.877Z,1.83
2017-09-18T16:37:24.439Z,2.53
2017-09-18T16:39:58.774Z,1.87
2017-09-18T16:42:33.282Z,2.50
2017-09-18T16:45:14.747Z,1.83
2017-09-18T16:47:49.283Z,1.87
2017-09-18T16:50:23.794Z,3.43
2017-09-18T16:52:58.480Z,2.00
2017-09-18T16:55:33.167Z,2.20
2017-09-18T16:58:07.831Z,1.87
2017-09-18T17:00:42.405Z,1.93
2017-09-18T17:03:17.159Z,2.97
2017-09-18T17:05:51.681Z,2.43
2017-09-18T17:08:26.258Z,2.40
2017-09-18T17:11:01.606Z,2.20
2017-09-18T17:13:36.190Z,2.43
2017-09-18T17:16:10.755Z,3.30
2017-09-18T17:18:45.188Z,3.13
2017-09-18T17:21:19.717Z,3.70
2017-09-18T17:23:54.185Z,4.30
2017-09-18T17:26:28.686Z,4.00
2017-09-18T17:29:03.262Z,5.40
2017-09-18T17:31:37.761Z,7.33
2017-09-18T17:34:12.285Z,12.77
2017-09-18T17:36:46.947Z,11.30
2017-09-18T17:39:21.426Z,6.57
2017-09-18T17:41:56.006Z,5.30
2017-09-18T17:44:30.534Z,5.93
2017-09-18T17:47:05.866Z,5.70
2017-09-18T17:49:40.269Z,5.57
2017-09-18T17:52:14.771Z,3.27
2017-09-18T17:54:49.409Z,3.10
2017-09-18T17:57:23.954Z,3.30
2017-09-18T17:59:58.594Z,2.80
2017-09-18T18:02:33.150Z,2.73
2017-09-18T18:05:13.881Z,3.13
2017-09-18T18:07:48.428Z,2.73
2017-09-18T18:10:22.995Z,3.57
2017-09-18T18:12:58.463Z,3.60
2017-09-18T18:15:32.906Z,2.87
2017-09-18T18:18:08.161Z,2.90
2017-09-18T18:20:43.558Z,3.43
2017-09-18T18:23:18.004Z,3.07
2017-09-18T18:25:52.557Z,3.30
2017-09-18T18:28:27.089Z,2.37
2017-09-18T18:31:01.687Z,3.40
2017-09-18T18:33:36.906Z,3.00
2017-09-18T18:36:11.361Z,3.23
2017-09-18T18:38:45.932Z,3.17
2017-09-18T18:41:20.433Z,3.03
2017-09-18T18:43:55.010Z,3.00
2017-09-18T18:46:29.750Z,4.63
2017-09-18T18:49:04.371Z,3.00
2017-09-18T18:51:38.997Z,4.00
2017-09-18T18:54:13.540Z,3.80
2017-09-18T18:56:48.093Z,3.40
2017-09-18T18:59:23.757Z,6.10
2017-09-18T19:01:58.589Z,17.90
2017-09-18T19:04:33.073Z,8.40
2017-09-18T19:07:07.551Z,7.27
2017-09-18T19:09:42.421Z,6.47
2017-09-18T19:12:16.763Z,3.57
2017-09-18T19:14:51.318Z,3.30
2017-09-18T19:17:25.889Z,2.20
2017-09-18T19:20:00.617Z,2.50
2017-09-18T19:22:35.005Z,2.30
2017-09-18T19:25:15.358Z,2.37
2017-09-18T19:27:50.002Z,1.50
2017-09-18T19:30:24.551Z,3.10
2017-09-18T19:32:59.091Z,1.97
2017-09-18T19:35:33.585Z,2.53
2017-09-18T19:38:08.150Z,2.73
2017-09-18T19:40:42.645Z,2.73
2017-09-18T19:43:17.134Z,2.50
2017-09-18T19:45:51.713Z,2.17
2017-09-18T19:48:26.294Z,1.97
2017-09-18T19:51:00.861Z,1.80
2017-09-18T19:53:35.282Z,1.80
2017-09-18T19:56:09.890Z,2.13
2017-09-18T19:58:45.125Z,2.10
2017-09-18T20:01:19.781Z,1.90
2017-09-18T20:03:54.329Z,2.47
2017-09-18T20:06:28.725Z,2.30
2017-09-18T20:09:02.842Z,2.40
2017-09-18T20:11:37.482Z,3.53
2017-09-18T20:14:12.010Z,2.60
2017-09-18T20:16:46.590Z,3.10
2017-09-18T20:19:21.285Z,3.37
2017-09-18T20:21:56.633Z,2.97
2017-09-18T20:24:31.328Z,2.50
2017-09-18T20:27:05.790Z,1.90
2017-09-18T20:29:40.414Z,2.73
2017-09-18T20:32:15.043Z,2.63
2017-09-18T20:34:49.645Z,2.30
2017-09-18T20:37:24.198Z,2.70
2017-09-18T20:39:58.777Z,2.60
2017-09-18T20:42:33.349Z,2.47
2017-09-18T20:45:13.690Z,2.10
2017-09-18T20:47:48.387Z,3.20
2017-09-18T20:50:22.961Z,3.80
2017-09-18T20:52:57.642Z,2.90
2017-09-18T20:55:32.221Z,3.03
2017-09-18T20:58:06.638Z,3.30
2017-09-18T21:00:41.230Z,2.40
2017-09-18T21:03:15.814Z,3.50
2017-09-18T21:05:50.334Z,2.90
2017-09-18T21:08:24.788Z,3.10
2017-09-18T21:10:59.381Z,3.07
2017-09-18T21:13:34.494Z,2.93
2017-09-18T21:16:09.170Z,3.27
2017-09-18T21:18:43.770Z,3.10
2017-09-18T21:21:18.530Z,3.10
2017-09-18T21:23:52.963Z,3.23
2017-09-18T21:26:28.349Z,2.90
2017-09-18T21:29:02.902Z,4.23
2017-09-18T21:31:37.485Z,4.33
2017-09-18T21:34:11.902Z,4.20
2017-09-18T21:36:46.573Z,3.60
2017-09-18T21:39:20.870Z,3.03
2017-09-18T21:41:55.262Z,3.30
2017-09-18T21:44:29.789Z,3.60
2017-09-18T21:47:04.414Z,4.47
2017-09-18T21:49:39.017Z,3.23
2017-09-18T21:52:14.477Z,3.10
2017-09-18T21:54:49.005Z,3.47
2017-09-18T21:57:23.566Z,3.83
2017-09-18T21:59:58.137Z,3.63
2017-09-18T22:02:32.818Z,4.10
2017-09-18T22:05:15.726Z,2.67
2017-09-18T22:07:50.193Z,3.20
2017-09-18T22:10:24.730Z,3.70
2017-09-18T22:12:59.228Z,2.73
2017-09-18T22:15:33.777Z,2.43
2017-09-18T22:18:09.236Z,2.43
2017-09-18T22:20:43.681Z,2.00
2017-09-18T22:23:18.904Z,2.10
2017-09-18T22:25:53.394Z,3.00
2017-09-18T22:28:27.621Z,2.20
2017-09-18T22:31:01.993Z,2.00
2017-09-18T22:33:36.554Z,2.80
2017-09-18T22:36:11.162Z,3.03
2017-09-18T22:38:45.763Z,4.03
2017-09-18T22:41:21.165Z,3.07
2017-09-18T22:43:55.597Z,3.17
2017-09-18T22:46:30.213Z,2.60
2017-09-18T22:49:04.746Z,3.27
2017-09-18T22:51:39.356Z,2.80
2017-09-18T22:54:13.946Z,2.50
2017-09-18T22:56:48.534Z,2.93
2017-09-18T22:59:23.257Z,2.73
2017-09-18T23:01:57.586Z,2.63
2017-09-18T23:04:32.218Z,2.80
2017-09-18T23:07:06.770Z,2.90
2017-09-18T23:09:41.416Z,3.10
2017-09-18T23:12:15.854Z,2.57
2017-09-18T23:14:50.396Z,3.60
2017-09-18T23:17:25.549Z,3.13
2017-09-18T23:20:00.173Z,2.80
2017-09-18T23:22:34.742Z,2.97
2017-09-18T23:25:13.537Z,3.00
2017-09-18T23:27:48.154Z,2.60
2017-09-18T23:30:22.800Z,3.50
2017-09-18T23:32:57.437Z,2.63
2017-09-18T23:35:32.050Z,2.57
2017-09-18T23:38:06.658Z,2.33
2017-09-18T23:40:41.842Z,1.83
2017-09-18T23:43:16.424Z,1.60
2017-09-18T23:45:50.782Z,2.10
2017-09-18T23:48:26.143Z,1.87
2017-09-18T23:51:00.602Z,1.97
2017-09-18T23:53:35.177Z,2.20
2017-09-18T23:56:09.698Z,1.87
2017-09-18T23:58:44.134Z,2.00
